Detall de PIREP

Printer-friendly versionPDF version

[2015/03/18 08:44:00]
Flight IATA:CT1005
Pilot Number:011
Company ICAO:CAT
Aircraft Type:B738/F
PAX:160
Departing Airport: LGAV
Destination Airport: EHEH
Alternate Airport:EHAM
Online: VATSIM
Route: PIKAD UL53 GARTA UV62 YNN UL604 BIGGE T281 HMM Z850 SOBTU T883 ROTEK
Flight Level:F380
No Slew and time accel
No pause
Crash detect
Detect pilot in Cockpit between each 30 and 45 minutes
08:44 Zero fuel Weight: 132992 Lbs, Fuel Weight: 27339 Lbs
08:44 VATSIM:LGAV 180820Z 36015KT 9999 FEW030 10/M01 Q1024 NOSIG
08:44 VATSIM:EHEH 180829Z AUTO 33004KT 5000 BR BKN140 09/06 Q1027 WHT 33006KT 5000 NSC
08:49 Parking Brakes off
09:05 Take-off
09:05 Take off Weight: 158984 Lbs
09:05 Wind: 017º @ 018 Knots Heading: 035º
09:05 POS N37º 55´ 58´´ E023º 55´ 46´´
09:05 Gear Up: 164 Knots
09:05 Flaps:5 at 164 Knots
09:06 Flaps:4 at 196 Knots
09:06 Flaps:3 at 209 Knots
09:06 Flaps:2at 223 Knots
09:06 Flaps:1 at 224 Knots
09:06 Flaps:0 at 226 Knots
09:20 Wind:354º@043 Knots Heading: 273º Ground Speed: 390 Knots Altitude 34494 ft
09:22 TOC
09:22 Fuel Weight: 22318 Lb
09:27 TOD
09:27 Fuel Weight: 21829 Lb
09:27 TOC
09:27 Fuel Weight: 21769 Lb
09:35 Wind:044º@030 Knots Heading: 308º Ground Speed: 454 Knots Altitude 38274 ft
09:50 Wind:048º@017 Knots Heading: 335º Ground Speed: 447 Knots Altitude 38241 ft
10:05 Wind:245º@010 Knots Heading: 340º Ground Speed: 436 Knots Altitude 38261 ft
10:20 Wind:172º@017 Knots Heading: 331º Ground Speed: 470 Knots Altitude 38284 ft
10:35 Wind:040º@012 Knots Heading: 326º Ground Speed: 444 Knots Altitude 38353 ft
10:50 Wind:080º@012 Knots Heading: 331º Ground Speed: 452 Knots Altitude 38379 ft
11:05 Wind:089º@036 Knots Heading: 324º Ground Speed: 472 Knots Altitude 38326 ft
11:20 Wind:115º@015 Knots Heading:289º Ground Speed: 467 Knots Altitude 38320 ft
11:35 Wind:353º@007 Knots Heading: 310º Ground Speed: 448 Knots Altitude 38346 ft
11:43 TOD
11:43 Fuel Weight: 11149 Lb
11:50 Wind:337º@017 Knots Heading: 306º Ground Speed: 390 Knots Altitude 24117 ft
12:05 Wind:322º@013 Knots Heading: 248º Ground Speed: 259 Knots Altitude 2998 ft
12:05 Flaps:1 at 229 Knots
12:05 Flaps:2 at 229 Knots
12:06 Flaps:3 at 214 Knots
12:07 Flaps:4 at 196 Knots
12:07 Flaps:5 at 182 Knots
12:07 Flaps:6 at 174 Knots
12:08 Gear Down: 165 Knots
12:08 Flaps:7 at 152 Knots
12:10 Flaps:8 at 150 Knots
12:17 TouchDown:Rate -279 ft/min Speed: 119 Knots
12:17 VATSIM:EHEH 181206Z AUTO 32009KT 4800 HZ OVC130 11/07 Q1028 GRN 32010KT 5000 NSC
12:17 Land
12:17 Wind:323º@009 Knots
12:17 Heading: 033º
12:17 Flight Duration: 03:12
12:17 Landing Weight: 141770 Lbs
12:17 POS N51º 27´ 02´´ E005º 22´ 31´´
12:19 Parking brakes on
12:19 Block to Block Duration: 03:30
12:19 Final Fuel: 8637 Lbls
12:19 Spent Fuel: 18701 Lbls
12:19 Flight Length: 1132 NM
12:19 TOD Land Length: 86 NM

Exportar CSV

Powered by Drupal - Modified by Danger4k